createdAt,value
2023-01-22T00:00:35.109Z,9.93
2023-01-22T00:03:01.620Z,8.30
2023-01-22T00:05:27.793Z,10.63
2023-01-22T00:07:54.041Z,9.05
2023-01-22T00:10:20.562Z,8.55
2023-01-22T00:12:47.095Z,9.02
2023-01-22T00:15:13.434Z,8.35
2023-01-22T00:17:39.737Z,9.40
2023-01-22T00:20:05.956Z,10.45
2023-01-22T00:22:32.205Z,9.88
2023-01-22T00:24:58.518Z,9.15
2023-01-22T00:27:24.774Z,10.25
2023-01-22T00:29:51.090Z,10.98
2023-01-22T00:32:20.582Z,8.25
2023-01-22T00:34:46.859Z,11.20
2023-01-22T00:37:13.170Z,10.73
2023-01-22T00:39:39.389Z,8.07
2023-01-22T00:42:05.720Z,10.23
2023-01-22T00:44:31.948Z,8.20
2023-01-22T00:46:58.239Z,9.35
2023-01-22T00:49:27.538Z,9.30
2023-01-22T00:51:53.787Z,9.18
2023-01-22T00:54:20.021Z,9.48
2023-01-22T00:56:46.373Z,7.15
2023-01-22T00:59:12.612Z,7.72
2023-01-22T01:01:38.916Z,6.60
2023-01-22T01:04:05.336Z,11.00
2023-01-22T01:06:31.574Z,9.48
2023-01-22T01:08:57.803Z,7.07
2023-01-22T01:11:24.018Z,9.32
2023-01-22T01:13:50.255Z,11.07
2023-01-22T01:16:18.943Z,10.02
2023-01-22T01:18:45.265Z,9.32
2023-01-22T01:21:11.529Z,11.43
2023-01-22T01:23:40.523Z,10.40
2023-01-22T01:26:06.884Z,8.38
2023-01-22T01:28:33.108Z,6.75
2023-01-22T01:30:59.398Z,11.23
2023-01-22T01:33:25.734Z,11.95
2023-01-22T01:35:51.976Z,8.93
2023-01-22T01:38:18.187Z,10.95
2023-01-22T01:40:44.400Z,11.00
2023-01-22T01:43:10.651Z,10.02
2023-01-22T01:45:36.937Z,9.98
2023-01-22T01:48:03.163Z,9.43
2023-01-22T01:50:29.375Z,9.60
2023-01-22T01:52:55.613Z,8.02
2023-01-22T01:55:21.847Z,11.00
2023-01-22T01:57:50.152Z,11.23
2023-01-22T02:00:16.670Z,9.50
2023-01-22T02:02:43.003Z,12.00
2023-01-22T02:05:09.235Z,11.10
2023-01-22T02:07:35.549Z,10.07
2023-01-22T02:10:01.823Z,9.85
2023-01-22T02:12:28.055Z,11.25
2023-01-22T02:14:54.344Z,10.63
2023-01-22T02:17:20.585Z,9.65
2023-01-22T02:19:46.823Z,10.82
2023-01-22T02:22:13.129Z,10.98
2023-01-22T02:24:39.449Z,10.05
2023-01-22T02:27:05.712Z,9.38
2023-01-22T02:29:32.007Z,8.38
2023-01-22T02:31:58.254Z,10.70
2023-01-22T02:34:24.601Z,9.05
2023-01-22T02:36:50.899Z,9.45
2023-01-22T02:39:20.009Z,8.57
2023-01-22T02:41:47.983Z,8.93
2023-01-22T02:44:14.261Z,9.18
2023-01-22T02:46:40.485Z,10.82
2023-01-22T02:49:06.688Z,9.85
2023-01-22T02:51:32.943Z,10.02
2023-01-22T02:53:59.243Z,9.13
2023-01-22T02:56:26.335Z,9.60
2023-01-22T02:58:52.591Z,8.98
2023-01-22T03:01:18.996Z,9.43
2023-01-22T03:03:45.400Z,8.32
2023-01-22T03:06:12.027Z,8.75
2023-01-22T03:08:38.467Z,8.27
2023-01-22T03:11:04.719Z,9.23
2023-01-22T03:13:30.885Z,8.68
2023-01-22T03:15:57.311Z,7.72
2023-01-22T03:18:23.530Z,7.00
2023-01-22T03:20:49.732Z,9.00
2023-01-22T03:23:19.687Z,8.13
2023-01-22T03:25:45.904Z,8.40
2023-01-22T03:28:12.134Z,7.68
2023-01-22T03:30:38.358Z,8.00
2023-01-22T03:33:05.652Z,8.02
2023-01-22T03:35:32.928Z,7.78
2023-01-22T03:37:59.201Z,7.95
2023-01-22T03:40:25.440Z,6.78
2023-01-22T03:42:51.702Z,7.78
2023-01-22T03:45:17.931Z,7.57
2023-01-22T03:47:44.153Z,6.97
2023-01-22T03:50:10.381Z,5.07
2023-01-22T03:52:36.631Z,6.13
2023-01-22T03:55:02.882Z,6.07
2023-01-22T03:57:29.145Z,7.38
2023-01-22T03:59:55.350Z,6.60
2023-01-22T04:02:21.603Z,7.07
2023-01-22T04:04:47.973Z,7.97
2023-01-22T04:07:14.261Z,6.30
2023-01-22T04:09:40.478Z,8.77
2023-01-22T04:12:06.733Z,5.35
2023-01-22T04:14:33.088Z,6.65
2023-01-22T04:17:02.447Z,6.07
2023-01-22T04:19:28.676Z,6.97
2023-01-22T04:21:54.891Z,6.75
2023-01-22T04:24:21.118Z,7.20
2023-01-22T04:26:47.363Z,6.93
2023-01-22T04:29:14.639Z,7.40
2023-01-22T04:31:40.928Z,7.28
2023-01-22T04:34:07.253Z,6.78
2023-01-22T04:36:34.469Z,6.68
2023-01-22T04:39:00.730Z,5.93
2023-01-22T04:41:26.963Z,7.45
2023-01-22T04:43:53.212Z,7.00
2023-01-22T04:46:19.490Z,7.90
2023-01-22T04:48:48.649Z,7.22
2023-01-22T04:51:14.989Z,6.85
2023-01-22T04:53:41.251Z,6.72
2023-01-22T04:56:07.466Z,6.70
2023-01-22T04:58:33.798Z,6.18
2023-01-22T05:01:00.019Z,6.50
2023-01-22T05:03:26.314Z,7.13
2023-01-22T05:05:52.548Z,6.90
2023-01-22T05:08:18.759Z,6.90
2023-01-22T05:10:47.864Z,6.82
2023-01-22T05:13:15.548Z,5.32
2023-01-22T05:15:41.790Z,6.15
2023-01-22T05:18:08.073Z,6.68
2023-01-22T05:20:34.330Z,6.28
2023-01-22T05:23:00.549Z,5.97
2023-01-22T05:25:27.005Z,6.55
2023-01-22T05:27:53.226Z,6.88
2023-01-22T05:30:19.735Z,5.97
2023-01-22T05:32:46.091Z,6.28
2023-01-22T05:35:13.476Z,7.55
2023-01-22T05:37:39.710Z,6.00
2023-01-22T05:40:06.007Z,6.80
2023-01-22T05:42:32.229Z,4.30
2023-01-22T05:45:01.559Z,5.00
2023-01-22T05:47:28.187Z,7.18
2023-01-22T05:49:54.435Z,5.65
2023-01-22T05:52:20.662Z,5.38
2023-01-22T05:54:47.087Z,6.45
2023-01-22T05:57:13.341Z,6.68
2023-01-22T05:59:39.671Z,6.50
2023-01-22T06:02:05.936Z,3.53
2023-01-22T06:04:32.138Z,7.20
2023-01-22T06:06:58.404Z,5.72
2023-01-22T06:09:24.612Z,5.15
2023-01-22T06:11:50.878Z,6.13
2023-01-22T06:14:17.117Z,5.95
2023-01-22T06:16:43.598Z,6.28
2023-01-22T06:19:09.833Z,6.32
2023-01-22T06:21:36.069Z,6.85
2023-01-22T06:24:02.261Z,5.57
2023-01-22T06:26:28.589Z,6.97
2023-01-22T06:28:54.865Z,4.95
2023-01-22T06:31:21.411Z,6.47
2023-01-22T06:33:50.678Z,6.38
2023-01-22T06:36:16.884Z,6.03
2023-01-22T06:38:43.162Z,5.65
2023-01-22T06:41:09.298Z,5.85
2023-01-22T06:43:35.459Z,6.00
2023-01-22T06:46:02.789Z,5.13
2023-01-22T06:48:28.982Z,6.10
2023-01-22T06:50:55.181Z,5.10
2023-01-22T06:53:21.458Z,6.10
2023-01-22T06:55:47.641Z,5.53
2023-01-22T06:58:13.832Z,5.72
2023-01-22T07:00:40.026Z,5.60
2023-01-22T07:03:06.215Z,5.90
2023-01-22T07:05:32.407Z,5.72
2023-01-22T07:07:58.626Z,6.13
2023-01-22T07:10:24.816Z,5.97
2023-01-22T07:12:51.023Z,5.38
2023-01-22T07:15:17.293Z,5.18
2023-01-22T07:17:45.591Z,5.68
2023-01-22T07:20:11.742Z,5.88
2023-01-22T07:22:37.951Z,6.22
2023-01-22T07:25:04.079Z,6.45
2023-01-22T07:27:30.286Z,6.07
2023-01-22T07:29:59.309Z,5.13
2023-01-22T07:32:25.505Z,5.90
2023-01-22T07:34:51.738Z,5.55
2023-01-22T07:37:17.983Z,5.40
2023-01-22T07:39:44.166Z,5.57
2023-01-22T07:42:10.379Z,5.68
2023-01-22T07:44:36.605Z,5.70
2023-01-22T07:47:02.845Z,5.68
2023-01-22T07:49:29.116Z,5.68
2023-01-22T07:51:55.347Z,7.20
2023-01-22T07:54:21.584Z,6.47
2023-01-22T07:56:47.817Z,6.40
2023-01-22T07:59:14.059Z,6.40
2023-01-22T08:01:40.276Z,6.88
2023-01-22T08:04:06.515Z,6.72
2023-01-22T08:06:32.762Z,5.82
2023-01-22T08:08:58.980Z,5.90
2023-01-22T08:11:25.220Z,5.68
2023-01-22T08:13:51.448Z,5.70
2023-01-22T08:16:21.210Z,6.25
2023-01-22T08:18:47.494Z,5.38
2023-01-22T08:21:13.755Z,5.90
2023-01-22T08:23:40.111Z,5.57
2023-01-22T08:26:06.371Z,5.55
2023-01-22T08:28:32.675Z,5.25
2023-01-22T08:30:58.903Z,6.00
2023-01-22T08:33:25.168Z,4.05
2023-01-22T08:35:51.427Z,5.13
2023-01-22T08:38:17.641Z,6.47
2023-01-22T08:40:43.829Z,5.38
2023-01-22T08:43:10.091Z,4.97
2023-01-22T08:45:36.372Z,5.15
2023-01-22T08:48:06.794Z,5.18
2023-01-22T08:50:33.086Z,4.85
2023-01-22T08:52:59.299Z,5.25
2023-01-22T08:55:25.565Z,4.43
2023-01-22T08:57:51.777Z,5.65
2023-01-22T09:00:18.120Z,4.18
2023-01-22T09:02:44.503Z,5.18
2023-01-22T09:05:10.713Z,4.82
2023-01-22T09:07:36.987Z,5.45
2023-01-22T09:10:03.217Z,4.55
2023-01-22T09:12:29.440Z,5.18
2023-01-22T09:14:55.655Z,4.40
2023-01-22T09:17:21.873Z,5.13
2023-01-22T09:19:48.105Z,5.18
2023-01-22T09:22:14.322Z,5.40
2023-01-22T09:24:40.523Z,4.90
2023-01-22T09:27:06.761Z,4.60
2023-01-22T09:29:33.086Z,4.85
2023-01-22T09:32:02.107Z,5.28
2023-01-22T09:34:28.343Z,5.07
2023-01-22T09:36:54.599Z,4.82
2023-01-22T09:39:20.850Z,5.70
2023-01-22T09:41:47.091Z,5.53
2023-01-22T09:44:19.225Z,4.35
2023-01-22T09:46:45.454Z,5.28
2023-01-22T09:49:11.674Z,4.88
2023-01-22T09:51:37.859Z,5.70
2023-01-22T09:54:04.148Z,5.18
2023-01-22T09:56:35.282Z,4.45
2023-01-22T09:59:01.574Z,4.70
2023-01-22T10:01:27.727Z,4.90
2023-01-22T10:03:54.076Z,5.32
2023-01-22T10:06:20.275Z,5.18
2023-01-22T10:08:46.495Z,5.03
2023-01-22T10:11:12.757Z,4.90
2023-01-22T10:13:38.978Z,4.80
2023-01-22T10:16:05.190Z,5.07
2023-01-22T10:18:31.453Z,4.63
2023-01-22T10:20:57.676Z,4.75
2023-01-22T10:23:23.950Z,5.15
2023-01-22T10:25:50.188Z,5.38
2023-01-22T10:28:18.304Z,5.13
2023-01-22T10:30:44.910Z,6.18
2023-01-22T10:33:11.398Z,6.10
2023-01-22T10:35:37.625Z,5.20
2023-01-22T10:38:04.104Z,5.82
2023-01-22T10:40:30.257Z,5.43
2023-01-22T10:42:56.465Z,5.53
2023-01-22T10:45:22.815Z,5.95
2023-01-22T10:47:49.049Z,5.63
2023-01-22T10:50:15.359Z,5.40
2023-01-22T10:52:41.616Z,6.03
2023-01-22T10:55:07.861Z,5.97
2023-01-22T10:57:34.253Z,5.03
2023-01-22T11:00:06.567Z,5.47
2023-01-22T11:02:32.835Z,5.13
2023-01-22T11:04:59.097Z,6.15
2023-01-22T11:07:25.490Z,5.60
2023-01-22T11:09:51.757Z,6.47
2023-01-22T11:12:18.025Z,5.25
2023-01-22T11:14:44.234Z,6.28
2023-01-22T11:17:10.435Z,5.93
2023-01-22T11:19:37.725Z,5.32
2023-01-22T11:22:04.006Z,5.55
2023-01-22T11:24:30.266Z,5.32
2023-01-22T11:26:56.557Z,5.60
2023-01-22T11:29:22.806Z,5.57
2023-01-22T11:31:49.139Z,5.32
2023-01-22T11:34:15.408Z,4.95
2023-01-22T11:36:41.694Z,5.60
2023-01-22T11:39:07.928Z,5.28
2023-01-22T11:41:34.163Z,5.55
2023-01-22T11:44:00.412Z,5.45
2023-01-22T11:46:26.691Z,5.75
2023-01-22T11:48:52.960Z,6.05
2023-01-22T11:51:19.274Z,4.93
2023-01-22T11:53:45.572Z,5.63
2023-01-22T11:56:14.886Z,5.38
2023-01-22T11:58:41.114Z,5.95
2023-01-22T12:01:07.574Z,7.07
2023-01-22T12:03:33.813Z,5.88
2023-01-22T12:06:00.222Z,5.28
2023-01-22T12:08:26.464Z,5.40
2023-01-22T12:10:54.867Z,5.38
2023-01-22T12:13:21.318Z,5.75
2023-01-22T12:15:47.585Z,5.57
2023-01-22T12:18:13.796Z,5.88
2023-01-22T12:20:40.114Z,5.88
2023-01-22T12:23:06.334Z,5.45
2023-01-22T12:25:32.569Z,5.10
2023-01-22T12:27:59.145Z,5.38
2023-01-22T12:30:25.380Z,5.18
2023-01-22T12:32:51.655Z,5.22
2023-01-22T12:35:19.409Z,4.78
2023-01-22T12:37:45.571Z,4.28
2023-01-22T12:40:11.850Z,4.97
2023-01-22T12:42:41.149Z,5.50
2023-01-22T12:45:07.393Z,5.63
2023-01-22T12:47:33.545Z,5.30
2023-01-22T12:49:59.694Z,5.20
2023-01-22T12:52:25.854Z,5.32
2023-01-22T12:54:52.016Z,5.32
2023-01-22T12:57:18.183Z,5.45
2023-01-22T12:59:44.378Z,4.93
2023-01-22T13:02:10.575Z,5.18
2023-01-22T13:04:36.804Z,5.18
2023-01-22T13:07:02.992Z,5.32
2023-01-22T13:09:29.206Z,5.95
2023-01-22T13:11:55.324Z,5.05
2023-01-22T13:14:21.494Z,6.88
2023-01-22T13:16:47.745Z,4.80
2023-01-22T13:19:13.875Z,7.18
2023-01-22T13:21:40.057Z,4.72
2023-01-22T13:24:06.177Z,5.53
2023-01-22T13:26:32.343Z,7.05
2023-01-22T13:28:58.495Z,6.53
2023-01-22T13:31:24.805Z,6.57
2023-01-22T13:33:51.022Z,6.07
2023-01-22T13:36:17.166Z,5.05
2023-01-22T13:38:43.416Z,5.30
2023-01-22T13:41:09.626Z,4.70
2023-01-22T13:43:35.845Z,5.57
2023-01-22T13:46:02.050Z,5.55
2023-01-22T13:48:28.250Z,5.80
2023-01-22T13:50:54.472Z,4.97
2023-01-22T13:53:20.718Z,5.38
2023-01-22T13:55:46.881Z,4.43
2023-01-22T13:58:13.068Z,4.45
2023-01-22T14:00:39.246Z,10.57
2023-01-22T14:03:05.418Z,5.97
2023-01-22T14:05:31.642Z,5.47
2023-01-22T14:07:57.845Z,5.40
2023-01-22T14:10:33.004Z,5.25
2023-01-22T14:12:59.164Z,4.82
2023-01-22T14:15:25.365Z,5.25
2023-01-22T14:17:51.536Z,5.35
2023-01-22T14:20:17.972Z,5.00
2023-01-22T14:22:44.398Z,5.13
2023-01-22T14:25:10.564Z,5.43
2023-01-22T14:27:36.758Z,6.18
2023-01-22T14:30:05.211Z,5.50
2023-01-22T14:32:31.373Z,6.28
2023-01-22T14:34:57.563Z,5.70
2023-01-22T14:37:23.727Z,5.40
2023-01-22T14:39:49.948Z,7.22
2023-01-22T14:42:16.122Z,6.45
2023-01-22T14:44:42.369Z,5.88
2023-01-22T14:49:48.809Z,6.28
2023-01-22T14:52:14.987Z,5.07
2023-01-22T14:54:44.241Z,5.30
2023-01-22T14:57:10.505Z,4.90
2023-01-22T14:59:36.665Z,6.00
2023-01-22T15:02:02.865Z,6.30
2023-01-22T15:04:32.076Z,7.30
2023-01-22T15:06:58.291Z,8.07
2023-01-22T15:09:38.400Z,19.58
2023-01-22T15:12:04.632Z,12.77
2023-01-22T15:14:30.759Z,9.73
2023-01-22T15:16:56.904Z,7.40
2023-01-22T15:19:23.066Z,7.65
2023-01-22T15:21:52.444Z,7.20
2023-01-22T15:24:18.587Z,6.80
2023-01-22T15:26:44.743Z,9.25
2023-01-22T15:29:10.863Z,7.15
2023-01-22T15:31:37.120Z,10.90
2023-01-22T15:34:04.725Z,7.05
2023-01-22T15:36:30.856Z,13.77
2023-01-22T15:38:57.016Z,6.82
2023-01-22T15:41:23.235Z,6.40
2023-01-22T15:43:49.470Z,11.68
2023-01-22T15:46:15.707Z,11.98
2023-01-22T15:48:48.427Z,9.68
2023-01-22T15:51:14.690Z,10.07
2023-01-22T15:53:40.907Z,12.73
2023-01-22T15:56:12.266Z,9.88
2023-01-22T15:58:38.432Z,10.63
2023-01-22T16:01:06.561Z,7.82
2023-01-22T16:03:32.741Z,6.35
2023-01-22T16:05:59.058Z,6.88
2023-01-22T16:08:34.343Z,6.93
2023-01-22T16:11:00.538Z,6.97
2023-01-22T16:13:28.726Z,6.88
2023-01-22T16:15:54.899Z,5.88
2023-01-22T16:18:21.364Z,7.32
2023-01-22T16:20:47.839Z,7.35
2023-01-22T16:23:14.039Z,7.50
2023-01-22T16:25:40.181Z,7.15
2023-01-22T16:28:15.496Z,6.40
2023-01-22T16:30:42.717Z,7.57
2023-01-22T16:33:11.211Z,6.30
2023-01-22T16:35:37.398Z,6.25
2023-01-22T16:38:03.727Z,5.38
2023-01-22T16:40:29.896Z,6.28
2023-01-22T16:42:56.101Z,5.38
2023-01-22T16:45:22.326Z,10.60
2023-01-22T16:47:49.203Z,6.05
2023-01-22T16:50:15.323Z,10.45
2023-01-22T16:52:41.604Z,6.57
2023-01-22T16:55:07.773Z,10.02
2023-01-22T16:57:33.918Z,14.40
2023-01-22T17:00:00.236Z,14.82
2023-01-22T17:02:29.258Z,8.82
2023-01-22T17:04:55.394Z,18.25
2023-01-22T17:07:33.131Z,12.48
2023-01-22T17:10:00.377Z,13.80
2023-01-22T17:12:27.636Z,9.88
2023-01-22T17:14:53.788Z,9.27
2023-01-22T17:17:19.994Z,9.00
2023-01-22T17:19:46.261Z,7.32
2023-01-22T17:22:12.460Z,9.32
2023-01-22T17:24:40.067Z,8.40
2023-01-22T17:27:06.263Z,8.75
2023-01-22T17:29:32.601Z,7.40
2023-01-22T17:32:02.114Z,7.72
2023-01-22T17:34:28.296Z,8.75
2023-01-22T17:36:54.493Z,10.32
2023-01-22T17:39:23.831Z,11.07
2023-01-22T17:41:49.973Z,8.65
2023-01-22T17:44:16.181Z,10.10
2023-01-22T17:46:42.622Z,17.48
2023-01-22T17:49:08.844Z,10.77
2023-01-22T17:51:35.082Z,8.52
2023-01-22T17:54:01.218Z,9.93
2023-01-22T17:56:27.444Z,9.02
2023-01-22T17:58:53.574Z,9.75
2023-01-22T18:01:20.148Z,9.18
2023-01-22T18:03:46.340Z,9.07
2023-01-22T18:06:15.005Z,9.40
2023-01-22T18:08:41.468Z,8.70
2023-01-22T18:11:07.674Z,9.07
2023-01-22T18:13:34.252Z,8.90
2023-01-22T18:16:00.531Z,9.40
2023-01-22T18:18:26.768Z,8.90
2023-01-22T18:20:52.986Z,7.57
2023-01-22T18:23:23.769Z,9.40
2023-01-22T18:25:49.931Z,7.63
2023-01-22T18:28:18.143Z,9.20
2023-01-22T18:30:44.425Z,9.50
2023-01-22T18:33:10.633Z,9.00
2023-01-22T18:35:36.833Z,8.63
2023-01-22T18:38:04.335Z,8.68
2023-01-22T18:40:30.556Z,8.27
2023-01-22T18:42:56.791Z,7.57
2023-01-22T18:45:22.992Z,8.18
2023-01-22T18:47:49.153Z,8.23
2023-01-22T18:50:15.306Z,8.32
2023-01-22T18:52:41.604Z,8.80
2023-01-22T18:55:08.884Z,8.85
2023-01-22T18:57:35.019Z,7.82
2023-01-22T19:00:01.170Z,8.48
2023-01-22T19:02:27.396Z,8.88
2023-01-22T19:04:53.597Z,9.60
2023-01-22T19:07:19.764Z,9.45
2023-01-22T19:09:45.919Z,9.00
2023-01-22T19:12:12.177Z,10.00
2023-01-22T19:14:38.426Z,9.90
2023-01-22T19:17:04.629Z,10.65
2023-01-22T19:19:30.798Z,8.88
2023-01-22T19:21:56.977Z,8.38
2023-01-22T19:24:23.192Z,8.50
2023-01-22T19:26:51.304Z,8.98
2023-01-22T19:29:24.370Z,9.75
2023-01-22T19:31:50.581Z,9.30
2023-01-22T19:34:16.880Z,14.27
2023-01-22T19:36:43.141Z,9.65
2023-01-22T19:39:09.335Z,12.10
2023-01-22T19:41:35.532Z,21.58
2023-01-22T19:44:06.676Z,10.40
2023-01-22T19:46:32.860Z,19.73
2023-01-22T19:48:59.130Z,13.27
2023-01-22T19:51:25.672Z,13.75
2023-01-22T19:53:53.830Z,13.85
2023-01-22T19:56:23.715Z,16.52
2023-01-22T20:01:40.247Z,19.08
2023-01-22T20:04:06.457Z,13.55
2023-01-22T20:06:32.653Z,11.73
2023-01-22T20:09:05.307Z,15.30
2023-01-22T20:11:31.528Z,18.80
2023-01-22T20:14:00.825Z,15.23
2023-01-22T20:16:30.169Z,12.50
2023-01-22T20:18:59.386Z,13.02
2023-01-22T20:21:25.620Z,13.35
2023-01-22T20:23:51.829Z,12.90
2023-01-22T20:26:21.113Z,10.00
2023-01-22T20:28:47.385Z,10.95
2023-01-22T20:31:13.739Z,24.67
2023-01-22T20:33:42.933Z,18.02
2023-01-22T20:36:10.334Z,14.25
2023-01-22T20:38:39.227Z,13.90
2023-01-22T20:41:08.228Z,14.63
2023-01-22T20:43:34.833Z,12.40
2023-01-22T20:46:04.573Z,11.02
2023-01-22T20:48:30.794Z,14.15
2023-01-22T20:50:57.062Z,15.55
2023-01-22T20:53:25.830Z,15.82
2023-01-22T20:55:53.302Z,11.82
2023-01-22T20:58:20.475Z,12.50
2023-01-22T21:00:46.773Z,10.55
2023-01-22T21:03:14.591Z,9.95
2023-01-22T21:05:40.862Z,10.05
2023-01-22T21:08:07.229Z,10.30
2023-01-22T21:10:33.630Z,10.15
2023-01-22T21:13:02.754Z,8.50
2023-01-22T21:15:28.966Z,9.27
2023-01-22T21:17:55.165Z,7.68
2023-01-22T21:20:23.736Z,10.50
2023-01-22T21:22:49.953Z,8.23
2023-01-22T21:25:19.259Z,8.43
2023-01-22T21:27:45.532Z,7.93
2023-01-22T21:30:12.875Z,8.48
2023-01-22T21:32:39.024Z,9.45
2023-01-22T21:35:06.455Z,8.30
2023-01-22T21:37:33.019Z,8.30
2023-01-22T21:40:02.279Z,7.47
2023-01-22T21:42:28.716Z,8.32
2023-01-22T21:44:55.013Z,8.60
2023-01-22T21:47:21.523Z,8.00
2023-01-22T21:49:47.731Z,8.25
2023-01-22T21:52:17.378Z,8.80
2023-01-22T21:54:43.704Z,8.90
2023-01-22T21:57:11.072Z,8.10
2023-01-22T21:59:37.441Z,8.18
2023-01-22T22:02:03.669Z,7.45
2023-01-22T22:04:29.938Z,7.75
2023-01-22T22:07:00.577Z,8.23
2023-01-22T22:09:27.446Z,9.43
2023-01-22T22:11:54.624Z,8.15
2023-01-22T22:14:25.835Z,8.05
2023-01-22T22:16:52.083Z,8.63
2023-01-22T22:19:18.503Z,8.13
2023-01-22T22:21:44.880Z,8.60
2023-01-22T22:24:11.163Z,7.70
2023-01-22T22:26:37.352Z,9.55
2023-01-22T22:29:04.509Z,8.63
2023-01-22T22:31:33.078Z,9.40
2023-01-22T22:33:59.613Z,8.07
2023-01-22T22:36:29.171Z,8.30
2023-01-22T22:38:55.371Z,7.50
2023-01-22T22:41:21.800Z,8.73
2023-01-22T22:54:44.533Z,8.32
2023-01-22T22:57:13.541Z,8.70
2023-01-22T22:59:42.570Z,8.65
2023-01-22T23:02:08.764Z,8.57
2023-01-22T23:04:34.946Z,8.10
2023-01-22T23:07:01.247Z,8.50
2023-01-22T23:09:27.609Z,8.30
2023-01-22T23:11:53.813Z,8.05
2023-01-22T23:14:20.059Z,8.77
2023-01-22T23:16:46.256Z,8.45
2023-01-22T23:19:12.478Z,6.97
2023-01-22T23:21:43.039Z,7.93
2023-01-22T23:24:09.250Z,8.45
2023-01-22T23:26:35.467Z,7.63
2023-01-22T23:29:01.616Z,6.90
2023-01-22T23:31:27.952Z,8.50
2023-01-22T23:33:55.593Z,7.43
2023-01-22T23:36:21.803Z,7.43
2023-01-22T23:38:47.937Z,7.30
2023-01-22T23:41:14.147Z,7.55
2023-01-22T23:43:40.483Z,8.32
2023-01-22T23:46:06.740Z,8.20
2023-01-22T23:48:32.956Z,7.50
2023-01-22T23:51:01.383Z,8.02
2023-01-22T23:53:27.561Z,8.07
2023-01-22T23:55:53.786Z,7.80
2023-01-22T23:58:22.525Z,7.72
